Plaine Magnien, Mauritius

00:25 MUT le 28 février 2017 (GMT +0400)
Mauritius International | | Change Station

Alt. 187 ft 20.43 °S, 57.67 °E | Updated 25 minutes ago

Partly Cloudy
Partiellement nuageux
79 ° F
Paraît 79 ° F
N
2
Vent Variable Vent de NO

Aujourd'hui
Haut(e) -- | Bas -- ° F
--% Risque de précip.
Hier
Haut(e) -- | Bas -- ° F
Precip. -- pouce
Pression 29.95 pouce
Visibilité 6.2 Miles terrestres
Nuages Peu 1700 ft
Point de rosée 73 ° F
Humidité 83%
Précipitations 0.00 pouce
Profondeur de la couche neigeuse Non disponible.
6:06 AM 6:36 PM
Nouvelle lune, 2% visible
METAR FIMP 272000Z 32002KT 9999 FEW017 26/23 Q1014
Pression 29.95 pouce
Visibilité 6.2 Miles terrestres
Nuages Peu 1700 ft
Point de rosée 73 ° F
Humidité 83%
Précipitations 0.00 pouce
Profondeur de la couche neigeuse Non disponible.
6:06 AM 6:36 PM
Nouvelle lune, 2% visible
METAR FIMP 272000Z 32002KT 9999 FEW017 26/23 Q1014

Get Your Daily Forecast Email!

Thanks for signing up!

Be on the lookout for a verification email in your inbox.

You'll start receiving the daily forecast at 8 AM.

×

10-Day Weather Forecast

No radar image for this location.
×

Almanac

Astronomie

Feb. 28, 2017 Lever Coucher
Temps réel
Crépuscule civil
Crépuscule nautique
Crépuscule astronomique
Lune
Durée de lumière visible
Longueur du jour
Tomorrow will be .
, % of the Moon is Illuminated

Extrêmes aujourd'hui

Country Highs Country Lows

Community

WunderPhotos

Upload Photos

1,962,540 Photos téléchargées !

WunderBlog® & News

Nearby

Qualité de l'air

  Qualité de l'air Indice de la qualité de l'air Polluant
Not available.

Épaisseur de neige

Station Depth Altitude

Activité sismique

Ville Distance Mag. Time & Date
Minimum magnitude displayed is 2.5.

Températures des eaux côtières

Lieu Température

Stations

Stations météo à proximité

Emplacement de la station Température Refroidissement éolien Point de rosée Humidité Vent Precip. Alt. Mise à jour Type